Historique des stations

Station météo de Reugny

Altitude de la station : 96 m







Données météorologiques pour le 20/10/2021
Date
Heure
Températures Humidité Point de rosée Vitesse
du vent
Direction Rafales Windchill Pression Pluviométrie
Cumul
Date
Heure
Températures Humidité Point de rosée Vitesse
du vent
Direction Rafales Windchill Pression Pluviométrie
Cumul
20/10/2021 23:5913.2 °C0 %-130.0 °C19 km/hOSO84 km/h10.6 1004 hPa2 mm
20/10/2021 23:4413.3 °C0 %-130.0 °C27 km/hO84 km/h9.4 1004 hPa2 mm
20/10/2021 23:2913.3 °C0 %-130.0 °C43 km/hSO84 km/h8.9 1004 hPa2 mm
20/10/2021 23:1413.3 °C0 %-130.0 °C27 km/hSSO84 km/h9.4 1004 hPa2 mm
20/10/2021 23:0013.4 °C0 %-130.0 °C31 km/hSO84 km/h9.4 1004 hPa2 mm
20/10/2021 22:4513.6 °C0 %-130.0 °C31 km/hSO84 km/h10.0 1004 hPa2 mm
20/10/2021 22:2913.9 °C0 %-130.0 °C27 km/hOSO84 km/h10.6 1004 hPa2 mm
20/10/2021 22:1416.4 °C0 %-130.0 °C39 km/hOSO84 km/h12.8 1004 hPa1.4 mm
20/10/2021 21:5918.1 °C0 %-130.0 °C43 km/hSO76 km/h14.4 1002 hPa-
20/10/2021 21:4417.9 °C0 %-130.0 °C47 km/hSSO76 km/h13.3 1002 hPa-
20/10/2021 21:2917.8 °C0 %-130.0 °C35 km/hSO76 km/h13.9 1003 hPa-
20/10/2021 21:1417.8 °C0 %-130.0 °C29 km/hSO76 km/h14.4 1003 hPa-
20/10/2021 21:0017.3 °C0 %-130.0 °C29 km/hS63 km/h13.9 1004 hPa-
20/10/2021 20:4517.2 °C0 %-130.0 °C61 km/hS61 km/h12.2 1004 hPa-
20/10/2021 20:2917.5 °C0 %-130.0 °C35 km/hSO50 km/h13.9 1005 hPa-
20/10/2021 20:1417.6 °C0 %-130.0 °C16 km/hO50 km/h16.1 1005 hPa-
20/10/2021 19:5917.7 °C0 %-130.0 °C27 km/hSO50 km/h15.0 1006 hPa-
20/10/2021 19:4417.7 °C0 %-130.0 °C27 km/hSO50 km/h15.0 1006 hPa-
20/10/2021 19:2917.7 °C0 %-130.0 °C31 km/hSSO50 km/h14.4 1006 hPa-
20/10/2021 19:1417.8 °C0 %-130.0 °C29 km/hSO50 km/h14.4 1006 hPa-
20/10/2021 18:5917.8 °C0 %-130.0 °C27 km/hS43 km/h15.0 1006 hPa-
20/10/2021 18:4417.8 °C0 %-130.0 °C21 km/hSSO43 km/h15.6 1007 hPa-
20/10/2021 18:3018.2 °C0 %-130.0 °C31 km/hSSO43 km/h15.0 1007 hPa-
20/10/2021 18:1518.3 °C0 %-130.0 °C37 km/hS43 km/h14.4 1008 hPa-
20/10/2021 18:0018.6 °C0 %-130.0 °C27 km/hSO42 km/h15.6 1008 hPa-
20/10/2021 17:4418.9 °C0 %-130.0 °C24 km/hS42 km/h16.7 1008 hPa-
20/10/2021 17:2919.3 °C0 %-130.0 °C14 km/hSSO42 km/h18.3 1009 hPa-
20/10/2021 17:1419.7 °C3 %-27.2 °C11 km/hSO42 km/h19.4 1009 hPa-
20/10/2021 16:5919.8 °C0 %-130.0 °C21 km/hSO42 km/h18.3 1009 hPa-
20/10/2021 16:4419.7 °C0 %-130.0 °C27 km/hSSO40 km/h16.7 1009 hPa-
20/10/2021 16:2919.2 °C0 %-130.0 °C16 km/hS35 km/h18.3 1009 hPa-
20/10/2021 16:1519.2 °C0 %-130.0 °C14 km/hSSO34 km/h18.3 1010 hPa-
20/10/2021 16:0019.0 °C0 %-130.0 °C29 km/hS34 km/h15.6 1010 hPa-
20/10/2021 15:4519.2 °C0 %-130.0 °C21 km/hS34 km/h17.2 1010 hPa-
20/10/2021 15:3019.1 °C0 %-130.0 °C26 km/hSO32 km/h16.1 1011 hPa-
20/10/2021 15:1418.9 °C0 %-130.0 °C27 km/hSSO40 km/h16.1 1011 hPa1 mm
20/10/2021 14:5919.1 °C0 %-130.0 °C19 km/hSSO40 km/h17.2 1011 hPa1 mm
20/10/2021 14:4419.3 °C0 %-130.0 °C27 km/hSSO40 km/h16.7 1011 hPa1 mm
20/10/2021 14:2919.3 °C0 %-130.0 °C14 km/hS40 km/h18.3 1012 hPa1 mm
20/10/2021 14:1419.6 °C0 %-130.0 °C18 km/hS39 km/h17.8 1012 hPa1 mm
20/10/2021 14:0019.1 °C0 %-130.0 °C29 km/hO39 km/h15.6 1012 hPa1 mm
20/10/2021 13:4418.9 °C0 %-130.0 °C13 km/hS37 km/h18.3 1012 hPa1 mm
20/10/2021 13:2918.8 °C0 %-130.0 °C27 km/hSO35 km/h16.1 1013 hPa1 mm
20/10/2021 13:1418.8 °C0 %-130.0 °C21 km/hSO35 km/h16.7 1013 hPa1 mm
20/10/2021 13:0018.0 °C0 %-130.0 °C----1013 hPa1 mm
20/10/2021 12:4517.8 °C0 %-130.0 °C----1013 hPa1 mm
20/10/2021 12:3017.4 °C0 %-130.0 °C----1013 hPa1 mm
20/10/2021 12:1517.2 °C0 %-130.0 °C----1013 hPa1 mm
20/10/2021 12:0017.2 °C0 %-130.0 °C----1013 hPa1 mm
20/10/2021 11:4416.9 °C0 %-130.0 °C----1014 hPa1 mm
20/10/2021 11:2916.7 °C0 %-130.0 °C----1014 hPa1 mm
20/10/2021 11:1416.4 °C0 %-130.0 °C----1014 hPa1 mm
20/10/2021 10:5916.1 °C0 %-130.0 °C----1014 hPa1 mm
20/10/2021 10:4416.0 °C0 %-130.0 °C----1014 hPa1 mm
20/10/2021 10:3016.0 °C0 %-130.0 °C----1014 hPa1 mm
20/10/2021 10:1415.9 °C0 %-130.0 °C----1014 hPa1 mm
20/10/2021 09:5915.8 °C0 %-130.0 °C----1013 hPa1 mm
20/10/2021 09:4415.8 °C0 %-130.0 °C----1013 hPa1 mm
20/10/2021 09:2915.7 °C0 %-130.0 °C----1013 hPa1 mm
20/10/2021 09:1415.8 °C0 %-130.0 °C----1013 hPa0.8 mm
20/10/2021 08:5915.9 °C0 %-130.0 °C----1013 hPa0.6 mm
20/10/2021 08:4516.0 °C0 %-130.0 °C26 km/hSSO32 km/h13.3 1014 hPa0.2 mm
20/10/2021 08:3016.3 °C0 %-130.0 °C21 km/hSO32 km/h13.9 1014 hPa-
20/10/2021 08:1516.1 °C0 %-130.0 °C19 km/hSO32 km/h13.9 1013 hPa-
20/10/2021 08:0015.9 °C0 %-130.0 °C21 km/hSSO32 km/h13.9 1014 hPa-
20/10/2021 07:4415.7 °C0 %-130.0 °C16 km/hSSO32 km/h13.9 1014 hPa-
20/10/2021 07:2915.7 °C0 %-130.0 °C16 km/hSSO32 km/h13.9 1014 hPa-
20/10/2021 07:1515.7 °C0 %-130.0 °C16 km/hSSO32 km/h13.9 1014 hPa-
20/10/2021 07:0015.6 °C0 %-130.0 °C11 km/hSSO32 km/h15.0 1014 hPa-
20/10/2021 06:4415.7 °C0 %-130.0 °C14 km/hSO32 km/h14.4 1014 hPa-
20/10/2021 06:2915.8 °C0 %-130.0 °C16 km/hSO32 km/h14.4 1015 hPa-
20/10/2021 06:1415.8 °C0 %-130.0 °C10 km/hOSO32 km/h16.1 1015 hPa-
20/10/2021 05:5915.8 °C0 %-130.0 °C16 km/hSO32 km/h14.4 1014 hPa-
20/10/2021 05:4515.7 °C0 %-130.0 °C14 km/hSSO32 km/h14.4 1014 hPa-
20/10/2021 05:3015.6 °C0 %-130.0 °C21 km/hS32 km/h13.3 1014 hPa-
20/10/2021 05:1415.5 °C0 %-130.0 °C11 km/hSSO32 km/h15.0 1014 hPa-
20/10/2021 04:5915.3 °C0 %-130.0 °C11 km/hSSO32 km/h15.0 1014 hPa-
20/10/2021 04:4415.3 °C0 %-130.0 °C3 km/hSO32 km/h15.6 1015 hPa-
20/10/2021 04:2915.3 °C0 %-130.0 °C-S32 km/h15.6 1014 hPa-
20/10/2021 04:1415.3 °C0 %-130.0 °C2 km/hS32 km/h15.6 1015 hPa-
20/10/2021 03:5915.4 °C0 %-130.0 °C-S32 km/h15.6 1015 hPa-
20/10/2021 03:4515.4 °C0 %-130.0 °C8 km/hS32 km/h15.6 1015 hPa-
20/10/2021 03:3015.4 °C0 %-130.0 °C13 km/hSSE32 km/h14.4 1015 hPa-
20/10/2021 03:1415.6 °C0 %-130.0 °C11 km/hS32 km/h15.0 1015 hPa-
20/10/2021 02:5915.7 °C0 %-130.0 °C6 km/hS32 km/h15.6 1016 hPa-
20/10/2021 02:4415.7 °C0 %-130.0 °C11 km/hS32 km/h15.0 1016 hPa-
20/10/2021 02:2915.9 °C0 %-130.0 °C14 km/hS32 km/h15.0 1016 hPa-
20/10/2021 02:1416.1 °C0 %-130.0 °C19 km/hS32 km/h13.9 1016 hPa-
20/10/2021 01:5916.0 °C0 %-130.0 °C26 km/hSSO32 km/h13.3 1016 hPa-
20/10/2021 01:4415.8 °C0 %-130.0 °C21 km/hS32 km/h13.3 1016 hPa-
20/10/2021 01:2915.8 °C0 %-130.0 °C11 km/hSSO32 km/h15.0 1016 hPa-
20/10/2021 01:1515.7 °C0 %-130.0 °C19 km/hS32 km/h13.3 1017 hPa-
20/10/2021 01:0015.3 °C0 %-130.0 °C10 km/hSSO32 km/h15.0 1017 hPa-
20/10/2021 00:4415.4 °C0 %-130.0 °C11 km/hSSO32 km/h15.0 1017 hPa-
20/10/2021 00:2915.9 °C0 %-130.0 °C11 km/hSSO32 km/h15.6 1017 hPa-
20/10/2021 00:1416.1 °C0 %-130.0 °C16 km/hS32 km/h14.4 1017 hPa-


Minima :

Température : 13.2 °C
Humidité : 0 %
Point de rosée : -130.0 °C
Vent moyen : 2 km/h
Windchill : 8.9
Pression atm. : 1002 hPa
Maxima :

Température : 19.8 °C
Humidité : 3 %
Point de rosée : -27.2 °C
Vent moyen : 61 km/h
Windchill : 19.4
Pression atm. : 1017 hPa
Rafales max : 84 km/h
Cumul de pluie sur 24H : 2 mm

Reugny est une commune du département Indre-et-Loire (37).
La station météorologique du réseau de l'association la plus proche de Reugny est celle de Véretz



Icône Facebook Association Météo Centre Icône Twitter Association Météo Centre Icône Chaîne Youtube Association Météo Centre Icône contact Association Météo Centre Icône Insta Association Météo Centre